| time (UTC) | temp F | wind direction | speed MPH | gust MPH | rain 1hr in | rain 24hr in | rain mn in | humidity % | barometer mb |
| 20260508114518 | 50 | 220 | 4.0 | 8.0 | 0.00 | 0.00 | 0.00 | 84 | 1017.1 |
| 20260508113005 | 50 | 208 | 2.0 | 8.0 | 0.00 | 0.00 | 0.00 | 85 | 1017.0 |
| 20260508111541 | 50 | 212 | 4.0 | 6.0 | 0.00 | 0.00 | 0.00 | 86 | 1016.9 |
| 20260508110025 | 50 | 216 | 2.0 | 6.0 | 0.00 | 0.00 | 0.00 | 85 | 1016.8 |
| 20260508104538 | 51 | 211 | 2.0 | 5.0 | 0.00 | 0.00 | 0.00 | 86 | 1016.5 |
| 20260508103049 | 51 | 210 | 1.0 | 4.0 | 0.00 | 0.00 | 0.00 | 87 | 1016.4 |
| 20260508101559 | 51 | 218 | 1.0 | 3.0 | 0.00 | 0.00 | 0.00 | 87 | 1016.4 |
| 20260508101502 | 51 | 218 | 1.0 | 3.0 | 0.00 | 0.00 | 0.00 | 87 | 1016.4 |
| 20260508100047 | 51 | 218 | 1.0 | 2.0 | 0.00 | 0.00 | 0.00 | 87 | 1016.4 |
| 20260508094526 | 51 | 218 | 0.0 | 1.0 | 0.00 | 0.00 | 0.00 | 86 | 1016.4 |
| 20260508093035 | 52 | 218 | 0.0 | 2.0 | 0.00 | 0.00 | 0.00 | 85 | 1016.3 |
| 20260508091606 | 52 | 218 | 0.0 | 2.0 | 0.00 | 0.00 | 0.00 | 83 | 1016.3 |
| 20260508084506 | 52 | 218 | 1.0 | 3.0 | 0.00 | 0.00 | 0.00 | 84 | 1016.3 |
| 20260508083030 | 52 | 218 | 0.0 | 0.0 | 0.00 | 0.00 | 0.00 | 82 | 1016.1 |
| 20260508081531 | 53 | 218 | 0.0 | 3.0 | 0.00 | 0.00 | 0.00 | 82 | 1016.1 |
| 20260508080041 | 53 | 218 | 0.0 | 2.0 | 0.00 | 0.00 | 0.00 | 82 | 1016.0 |
| 20260508074550 | 53 | 218 | 0.0 | 1.0 | 0.00 | 0.00 | 0.00 | 81 | 1016.1 |
| 20260508073008 | 54 | 218 | 0.0 | 2.0 | 0.00 | 0.00 | 0.00 | 80 | 1016.0 |
| 20260508071519 | 54 | 218 | 0.0 | 3.0 | 0.00 | 0.00 | 0.00 | 79 | 1016.2 |
| 20260508070018 | 54 | 174 | 0.0 | 2.0 | 0.00 | 0.00 | 0.00 | 78 | 1016.2 |
| 20260508064515 | 54 | 174 | 0.0 | 1.0 | 0.00 | 0.00 | 0.00 | 78 | 1016.2 |
| 20260508063138 | 55 | 174 | 0.0 | 0.0 | 0.00 | 0.00 | 0.00 | 77 | 1016.2 |
| 20260508061509 | 55 | 174 | 1.0 | 5.0 | 0.00 | 0.00 | 0.00 | 75 | 1016.1 |
| 20260508060049 | 56 | 60 | 0.0 | 0.0 | 0.00 | 0.00 | 0.00 | 73 | 1016.1 |
| 20260508054559 | 56 | 60 | 0.0 | 0.0 | 0.00 | 0.00 | 0.00 | 72 | 1016.3 |
| 20260508054501 | 56 | 59 | 0.0 | 0.0 | 0.00 | 0.00 | 0.00 | 72 | 1016.3 |
| 20260508053015 | 56 | 59 | 0.0 | 0.0 | 0.00 | 0.00 | 0.00 | 73 | 1016.3 |
| 20260508051504 | 56 | 60 | 0.0 | 0.0 | 0.00 | 0.00 | 0.00 | 73 | 1016.4 |
| 20260508050021 | 56 | 59 | 0.0 | 0.0 | 0.00 | 0.00 | 0.00 | 72 | 1016.4 |
| 20260508044509 | 56 | 60 | 0.0 | 0.0 | 0.00 | 0.00 | 0.00 | 71 | 1016.4 |
| 20260508043043 | 56 | 59 | 0.0 | 0.0 | 0.00 | 0.00 | 0.00 | 70 | 1016.4 |
| 20260508041552 | 57 | 59 | 0.0 | 0.0 | 0.00 | 0.00 | 0.00 | 69 | 1016.4 |
| 20260508040003 | 58 | 59 | 0.0 | 0.0 | 0.00 | 0.00 | 0.00 | 66 | 1016.4 |
| 20260508034523 | 59 | 60 | 0.0 | 0.0 | 0.00 | 0.00 | 0.00 | 66 | 1016.3 |
| 20260508033020 | 60 | 60 | 0.0 | 0.0 | 0.00 | 0.00 | 0.00 | 64 | 1016.2 |
| 20260508031523 | 61 | 59 | 0.0 | 0.0 | 0.00 | 0.00 | 0.00 | 64 | 1016.3 |
| 20260508030043 | 61 | 60 | 0.0 | 2.0 | 0.00 | 0.00 | 0.00 | 63 | 1016.2 |
| 20260508024522 | 62 | 59 | 0.0 | 2.0 | 0.00 | 0.00 | 0.00 | 61 | 1016.3 |
| 20260508023057 | 62 | 59 | 0.0 | 3.0 | 0.00 | 0.00 | 0.00 | 60 | 1016.4 |
| 20260508021517 | 63 | 59 | 0.0 | 3.0 | 0.00 | 0.00 | 0.00 | 59 | 1016.5 |
| 20260508020020 | 64 | 71 | 3.0 | 5.0 | 0.00 | 0.00 | 0.00 | 56 | 1016.5 |
| 20260508014600 | 64 | 32 | 1.0 | 4.0 | 0.00 | 0.00 | 0.00 | 55 | 1016.7 |
| 20260508014513 | 64 | 32 | 1.0 | 4.0 | 0.00 | 0.00 | 0.00 | 56 | 1016.7 |
| 20260508013012 | 65 | 359 | 1.0 | 3.0 | 0.00 | 0.00 | 0.00 | 55 | 1016.7 |
| 20260508011531 | 64 | 277 | 0.0 | 5.0 | 0.00 | 0.00 | 0.00 | 56 | 1016.9 |
| 20260508010027 | 65 | 51 | 1.0 | 3.0 | 0.00 | 0.00 | 0.00 | 54 | 1017.0 |
| 20260508004550 | 66 | 347 | 2.0 | 6.0 | 0.00 | 0.00 | 0.00 | 51 | 1017.1 |
| 20260508003103 | 64 | 60 | 1.0 | 9.0 | 0.00 | 0.00 | 0.00 | 54 | 1017.3 |
| 20260508001514 | 65 | 33 | 1.0 | 4.0 | 0.00 | 0.00 | 0.00 | 52 | 1017.3 |
| 20260508000056 | 66 | 283 | 1.0 | 4.0 | 0.00 | 0.00 | 0.00 | 53 | 1017.5 |
| 20260507234538 | 65 | 276 | 0.0 | 5.0 | 0.00 | 0.00 | 0.00 | 53 | 1017.4 |
| 20260507233038 | 66 | 42 | 1.0 | 6.0 | 0.00 | 0.00 | 0.00 | 52 | 1017.5 |
| 20260507231542 | 65 | 284 | 2.0 | 7.0 | 0.00 | 0.00 | 0.00 | 53 | 1017.7 |
| 20260507230107 | 64 | 354 | 1.0 | 7.0 | 0.00 | 0.00 | 0.00 | 56 | 1017.8 |
| 20260507224511 | 63 | 16 | 3.0 | 8.0 | 0.00 | 0.00 | 0.00 | 57 | 1018.0 |
| 20260507223043 | 64 | 302 | 0.0 | 6.0 | 0.00 | 0.00 | 0.00 | 58 | 1018.1 |
| 20260507221532 | 63 | 340 | 2.0 | 11.0 | 0.00 | 0.00 | 0.00 | 59 | 1018.3 |
| 20260507220045 | 62 | 288 | 2.0 | 10.0 | 0.00 | 0.00 | 0.00 | 60 | 1018.4 |
| 20260507214547 | 63 | 316 | 2.0 | 10.0 | 0.00 | 0.00 | 0.00 | 58 | 1018.5 |
| 20260507213121 | 63 | 239 | 0.0 | 5.0 | 0.00 | 0.00 | 0.00 | 61 | 1018.7 |
| 20260507211600 | 62 | 97 | 3.0 | 10.0 | 0.00 | 0.00 | 0.00 | 60 | 1018.8 |
| 20260507211502 | 62 | 99 | 2.0 | 10.0 | 0.00 | 0.00 | 0.00 | 59 | 1018.8 |
| 20260507210008 | 61 | 334 | 2.0 | 8.0 | 0.00 | 0.00 | 0.00 | 63 | 1019.0 |
| 20260507204520 | 60 | 281 | 2.0 | 8.0 | 0.00 | 0.00 | 0.00 | 63 | 1019.2 |
| 20260507203034 | 59 | 164 | 0.0 | 7.0 | 0.00 | 0.00 | 0.00 | 65 | 1019.3 |
| 20260507201540 | 60 | 262 | 0.0 | 4.0 | 0.00 | 0.00 | 0.00 | 64 | 1019.4 |
| 20260507200055 | 59 | 278 | 2.0 | 8.0 | 0.00 | 0.00 | 0.00 | 66 | 1019.6 |
| 20260507194552 | 59 | 233 | 2.0 | 4.0 | 0.00 | 0.00 | 0.00 | 66 | 1019.6 |
| 20260507193100 | 58 | 261 | 2.0 | 4.0 | 0.00 | 0.00 | 0.00 | 67 | 1019.7 |
| 20260507193006 | 58 | 260 | 1.0 | 4.0 | 0.00 | 0.00 | 0.00 | 67 | 1019.7 |
| 20260507191518 | 58 | 323 | 2.0 | 7.0 | 0.00 | 0.00 | 0.00 | 67 | 1019.8 |
| 20260507190035 | 57 | 253 | 2.0 | 7.0 | 0.00 | 0.00 | 0.00 | 69 | 1019.9 |
| 20260507184544 | 57 | 284 | 1.0 | 5.0 | 0.00 | 0.00 | 0.00 | 69 | 1019.9 |
| 20260507183056 | 57 | 77 | 0.0 | 4.0 | 0.00 | 0.00 | 0.00 | 70 | 1020.1 |
| 20260507181516 | 57 | 265 | 4.0 | 7.0 | 0.00 | 0.00 | 0.00 | 71 | 1020.1 |
| 20260507180029 | 56 | 286 | 1.0 | 4.0 | 0.00 | 0.00 | 0.00 | 72 | 1020.2 |
| 20260507174518 | 55 | 259 | 1.0 | 8.0 | 0.00 | 0.00 | 0.00 | 76 | 1020.3 |
| 20260507173024 | 55 | 251 | 3.0 | 9.0 | 0.00 | 0.00 | 0.00 | 75 | 1020.4 |
| 20260507171539 | 54 | 268 | 2.0 | 7.0 | 0.00 | 0.00 | 0.00 | 77 | 1020.3 |
| 20260507170051 | 55 | 303 | 1.0 | 4.0 | 0.00 | 0.00 | 0.00 | 75 | 1020.3 |
| 20260507164559 | 55 | 283 | 1.0 | 4.0 | 0.00 | 0.00 | 0.00 | 78 | 1020.3 |
| 20260507163005 | 54 | 299 | 2.0 | 7.0 | 0.00 | 0.00 | 0.00 | 80 | 1020.4 |
| 20260507161513 | 53 | 274 | 2.0 | 4.0 | 0.00 | 0.00 | 0.00 | 80 | 1020.4 |
| 20260507160026 | 53 | 241 | 4.0 | 7.0 | 0.00 | 0.00 | 0.00 | 80 | 1020.4 |
| 20260507154531 | 52 | 239 | 3.0 | 9.0 | 0.00 | 0.00 | 0.00 | 80 | 1020.4 |
| 20260507153024 | 52 | 240 | 2.0 | 8.0 | 0.00 | 0.00 | 0.00 | 81 | 1020.4 |
| 20260507151536 | 51 | 275 | 4.0 | 8.0 | 0.00 | 0.00 | 0.00 | 83 | 1020.5 |
| 20260507150049 | 51 | 214 | 1.0 | 3.0 | 0.00 | 0.00 | 0.00 | 84 | 1020.6 |
| 20260507144552 | 51 | 193 | 1.0 | 4.0 | 0.00 | 0.00 | 0.00 | 85 | 1020.7 |
| 20260507143004 | 50 | 193 | 1.0 | 3.0 | 0.00 | 0.00 | 0.00 | 86 | 1020.6 |
| 20260507141521 | 50 | 193 | 1.0 | 4.0 | 0.00 | 0.00 | 0.00 | 85 | 1020.6 |
| 20260507140032 | 50 | 193 | 1.0 | 2.0 | 0.00 | 0.00 | 0.00 | 86 | 1020.5 |
| 20260507134514 | 50 | 193 | 0.0 | 3.0 | 0.00 | 0.00 | 0.00 | 86 | 1020.5 |
| 20260507133023 | 50 | 193 | 0.0 | 2.0 | 0.00 | 0.00 | 0.00 | 86 | 1020.4 |
| 20260507131534 | 50 | 193 | 1.0 | 4.0 | 0.00 | 0.00 | 0.00 | 85 | 1020.3 |
| 20260507130017 | 50 | 193 | 0.0 | 1.0 | 0.00 | 0.00 | 0.00 | 85 | 1020.3 |
| 20260507124525 | 50 | 193 | 0.0 | 2.0 | 0.00 | 0.00 | 0.00 | 85 | 1020.4 |
| 20260507123041 | 50 | 193 | 0.0 | 2.0 | 0.00 | 0.00 | 0.00 | 85 | 1020.4 |
| 20260507121558 | 50 | 193 | 0.0 | 1.0 | 0.00 | 0.00 | 0.00 | 85 | 1020.4 |
| 20260507120039 | 50 | 193 | 0.0 | 1.0 | 0.00 | 0.00 | 0.00 | 84 | 1020.5 |